Time;durP1;ratioP1;P1;durP2;ratioP2;P2;SDS_P1;SDS_P2;PMS_P1;PMS_P2;Temp;Humidity;BMP_temperature;BMP_pressure;BME280_temperature;BME280_humidity;BME280_pressure;Samples;Min_cycle;Max_cycle;Signal;HPM_P1;HPM_P2
2022/11/23 00:02:14;;;;;;;17.67;6.47;;;;;;;7.56;100.00;99424.31;5020765;28;20047;-87
2022/11/23 00:04:40;;;;;;;18.07;7.10;;;;;;;7.53;100.00;99412.09;5021229;28;20041;-87
2022/11/23 00:07:05;;;;;;;16.43;6.60;;;;;;;7.50;100.00;99434.13;4987061;28;20040;-87
2022/11/23 00:09:30;;;;;;;16.43;7.00;;;;;;;7.55;100.00;99431.59;5003354;28;20055;-86
2022/11/23 00:11:55;;;;;;;12.70;5.53;;;;;;;7.56;100.00;99438.63;5021541;28;20052;-89
2022/11/23 00:14:21;;;;;;;14.40;5.70;;;;;;;7.58;100.00;99428.44;5021220;28;20151;-87
2022/11/23 00:16:46;;;;;;;13.27;5.13;;;;;;;7.62;100.00;99436.09;5003392;28;20663;-88
2022/11/23 00:19:12;;;;;;;16.50;5.50;;;;;;;7.52;100.00;99426.66;5021841;28;20186;-90
2022/11/23 00:21:37;;;;;;;12.63;4.63;;;;;;;7.63;100.00;99435.00;5021579;28;20387;-89
2022/11/23 00:24:03;;;;;;;17.40;5.70;;;;;;;7.72;100.00;99436.34;5021071;28;20099;-89
2022/11/23 00:26:28;;;;;;;21.33;5.70;;;;;;;7.74;100.00;99450.44;5003397;28;20092;-89
2022/11/23 00:28:54;;;;;;;15.47;5.07;;;;;;;7.70;100.00;99446.53;5021719;28;20038;-89
2022/11/23 00:31:20;;;;;;;15.27;4.73;;;;;;;7.66;100.00;99438.09;4993154;22;20071;-89
2022/11/23 00:33:51;;;;;;;14.00;5.23;;;;;;;7.55;100.00;99423.50;5027266;28;20112;-89
2022/11/23 00:36:17;;;;;;;16.07;5.00;;;;;;;7.49;100.00;99424.38;5028477;28;20040;-89
2022/11/23 00:38:43;;;;;;;14.03;5.03;;;;;;;7.72;100.00;99449.81;5025696;28;21478;-90
2022/11/23 00:41:15;;;;;;;13.20;4.70;;;;;;;7.65;100.00;99436.44;5027608;28;20407;-88
2022/11/23 00:43:40;;;;;;;12.70;4.33;;;;;;;7.59;100.00;99437.34;5028471;28;20111;-88
2022/11/23 00:46:20;;;;;;;14.17;4.67;;;;;;;7.58;100.00;99428.44;5027449;28;20033;-87
2022/11/23 00:48:48;;;;;;;13.77;4.73;;;;;;;7.59;100.00;99443.56;5025886;28;20032;-88
2022/11/23 00:51:22;;;;;;;14.87;4.40;;;;;;;7.58;100.00;99436.50;5026337;28;20554;-87
2022/11/23 00:53:51;;;;;;;14.40;4.43;;;;;;;7.48;100.00;99430.00;5027833;28;20037;-88
2022/11/23 00:56:17;;;;;;;15.37;4.23;;;;;;;7.65;100.00;99435.63;5024087;28;20072;-87
2022/11/23 00:58:47;;;;;;;15.13;4.40;;;;;;;7.79;100.00;99458.63;5027382;28;20250;-87
2022/11/23 01:01:14;;;;;;;14.37;4.70;;;;;;;7.77;100.00;99455.38;5027749;28;20037;-86
2022/11/23 01:03:42;;;;;;;18.03;4.47;;;;;;;7.65;100.00;99451.78;5027425;28;20033;-88
2022/11/23 01:06:10;;;;;;;14.93;5.13;;;;;;;7.63;100.00;99445.78;5026826;28;20146;-86
2022/11/23 01:08:36;;;;;;;15.93;4.50;;;;;;;7.63;100.00;99446.63;5023954;28;20773;-89
2022/11/23 01:11:04;;;;;;;16.53;4.40;;;;;;;7.62;100.00;99441.47;5027487;28;20041;-88
2022/11/23 01:13:30;;;;;;;15.90;4.50;;;;;;;7.64;100.00;99444.75;5027468;28;20036;-88
2022/11/23 01:15:56;;;;;;;10.27;3.90;;;;;;;7.67;100.00;99444.28;5027839;28;20040;-88
2022/11/23 01:18:22;;;;;;;13.33;4.10;;;;;;;7.68;100.00;99457.53;5031963;28;20037;-88
2022/11/23 01:20:47;;;;;;;14.90;3.90;;;;;;;7.69;100.00;99450.28;5027477;28;20037;-85
2022/11/23 01:23:13;;;;;;;15.87;4.63;;;;;;;7.63;100.00;99454.72;5028312;28;20294;-87
2022/11/23 01:25:39;;;;;;;13.60;4.47;;;;;;;7.64;100.00;99444.75;5028150;28;20068;-87
2022/11/23 01:28:04;;;;;;;12.77;5.10;;;;;;;7.58;100.00;99450.00;5024483;28;20462;-86
2022/11/23 01:30:30;;;;;;;17.27;5.80;;;;;;;7.55;100.00;99453.16;5025967;28;20136;-86
2022/11/23 01:32:55;;;;;;;12.53;3.70;;;;;;;7.74;100.00;99477.41;5026813;28;20489;-87
2022/11/23 01:35:20;;;;;;;14.80;4.57;;;;;;;7.62;100.00;99454.94;5027456;28;20041;-87
2022/11/23 01:37:46;;;;;;;16.70;5.30;;;;;;;7.69;100.00;99466.47;5026650;28;20388;-88
2022/11/23 01:40:11;;;;;;;14.67;5.67;;;;;;;7.68;100.00;99478.28;5027906;28;20033;-87
2022/11/23 01:42:51;;;;;;;17.27;6.10;;;;;;;7.68;100.00;99472.91;5026709;28;20630;-87
2022/11/23 01:45:39;;;;;;;15.00;5.63;;;;;;;7.65;100.00;99479.56;5042932;28;20038;-86
2022/11/23 01:48:31;;;;;;;18.50;6.97;;;;;;;7.62;100.00;99465.72;5026045;28;20548;-87
2022/11/23 01:50:59;;;;;;;13.70;4.67;;;;;;;7.62;100.00;99471.13;5024885;28;20118;-87
2022/11/23 01:53:27;;;;;;;13.30;4.00;;;;;;;7.68;100.00;99476.41;5026526;28;20045;-88
2022/11/23 01:55:56;;;;;;;12.37;4.10;;;;;;;7.67;100.00;99479.34;5027640;28;20730;-87
2022/11/23 01:58:23;;;;;;;13.97;4.50;;;;;;;7.54;100.00;99459.56;5026885;28;20060;-89
2022/11/23 02:00:48;;;;;;;13.57;5.00;;;;;;;7.57;100.00;99461.81;5022554;28;20259;-86
2022/11/23 02:03:14;;;;;;;16.53;5.53;;;;;;;7.65;100.00;99478.75;5024920;28;20692;-88
2022/11/23 02:05:47;;;;;;;16.57;6.17;;;;;;;7.58;100.00;99468.03;5027835;28;20045;-88
2022/11/23 02:08:15;;;;;;;14.77;5.00;;;;;;;7.62;100.00;99493.50;5027031;28;20135;-89
2022/11/23 02:10:41;;;;;;;16.43;4.73;;;;;;;7.62;100.00;99481.91;5029063;28;20123;-88
2022/11/23 02:13:09;;;;;;;13.00;3.77;;;;;;;7.70;100.00;99503.97;5027389;28;20094;-87
2022/11/23 02:15:36;;;;;;;18.70;6.27;;;;;;;7.63;100.00;99492.47;5031235;28;20430;-87
2022/11/23 02:18:04;;;;;;;16.90;5.40;;;;;;;7.58;100.00;99487.72;5031000;28;20084;-88
2022/11/23 02:20:30;;;;;;;12.87;4.87;;;;;;;7.55;100.00;99485.50;5029787;28;20029;-88
2022/11/23 02:23:00;;;;;;;15.93;4.90;;;;;;;7.78;100.00;99506.38;5012572;28;20298;-88
2022/11/23 02:25:44;;;;;;;15.37;5.27;;;;;;;7.76;100.00;99507.63;5029771;28;20466;-86
2022/11/23 02:28:23;;;;;;;16.23;4.57;;;;;;;7.69;100.00;99485.34;5026715;28;20120;-89
2022/11/23 02:30:51;;;;;;;15.23;5.27;;;;;;;7.82;100.00;99504.06;5026301;28;20153;-88
2022/11/23 02:33:17;;;;;;;15.03;4.80;;;;;;;7.75;100.00;99493.34;5029719;28;20062;-89
2022/11/23 02:35:51;;;;;;;14.30;4.00;;;;;;;7.80;100.00;99503.44;5030321;28;20082;-88
2022/11/23 02:38:17;;;;;;;16.95;5.18;;;;;;;7.85;100.00;99510.88;5029223;28;20095;-88
2022/11/23 02:40:42;;;;;;;12.73;3.87;;;;;;;7.80;100.00;99506.13;5011847;28;20053;-88
2022/11/23 02:43:08;;;;;;;15.03;3.83;;;;;;;7.91;100.00;99510.78;5029401;28;20500;-87
2022/11/23 02:47:58;;;;;;;14.25;3.97;;;;;;;7.72;100.00;99499.16;5029454;22;20057;-86
2022/11/23 02:50:24;;;;;;;17.27;5.50;;;;;;;7.77;100.00;99498.50;5029770;28;20183;-86
2022/11/23 02:52:49;;;;;;;14.87;5.20;;;;;;;7.70;100.00;99498.59;5030196;28;21440;-87
2022/11/23 02:55:15;;;;;;;16.70;5.77;;;;;;;7.78;100.00;99500.97;5028165;28;20037;-87
2022/11/23 02:57:40;;;;;;;15.23;5.07;;;;;;;7.79;100.00;99509.88;5030179;28;20060;-87
2022/11/23 03:00:06;;;;;;;15.27;4.10;;;;;;;7.76;100.00;99504.94;5029746;28;20824;-84
2022/11/23 03:02:32;;;;;;;16.10;5.57;;;;;;;7.66;100.00;99492.00;5044213;28;20181;-83
2022/11/23 03:04:57;;;;;;;15.67;5.67;;;;;;;7.73;100.00;99491.91;5029838;28;20041;-86
2022/11/23 03:07:22;;;;;;;15.70;4.87;;;;;;;7.76;100.00;99491.47;5035085;28;20056;-86
2022/11/23 03:09:48;;;;;;;15.23;3.80;;;;;;;7.69;100.00;99491.53;5030267;28;20041;-89
2022/11/23 03:12:14;;;;;;;16.07;4.47;;;;;;;7.74;100.00;99504.34;5029037;28;20048;-88
2022/11/23 03:14:40;;;;;;;17.10;5.40;;;;;;;7.72;100.00;99492.97;5029328;28;20045;-87
2022/11/23 03:17:05;;;;;;;15.70;5.00;;;;;;;7.68;100.00;99506.06;5026938;28;20414;-88
2022/11/23 03:19:30;;;;;;;20.67;5.77;;;;;;;7.63;100.00;99500.53;5029159;28;20036;-88
2022/11/23 03:21:56;;;;;;;18.37;5.23;;;;;;;7.67;100.00;99501.75;5028956;28;20518;-87
2022/11/23 03:24:21;;;;;;;14.93;4.53;;;;;;;7.80;100.00;99521.50;5030098;28;20322;-87
2022/11/23 03:26:47;;;;;;;17.47;5.00;;;;;;;7.84;100.00;99525.38;5028359;28;20044;-86
2022/11/23 03:29:12;;;;;;;15.73;4.30;;;;;;;7.65;100.00;99505.72;5029202;28;20032;-88
2022/11/23 03:31:37;;;;;;;14.77;3.97;;;;;;;7.74;100.00;99507.06;5034502;28;20082;-86
2022/11/23 03:34:03;;;;;;;14.13;4.13;;;;;;;7.62;100.00;99511.56;5029266;28;20362;-87
2022/11/23 03:36:28;;;;;;;13.23;3.30;;;;;;;7.67;100.00;99514.38;5029559;28;20090;-87
2022/11/23 03:38:53;;;;;;;15.50;3.87;;;;;;;7.59;100.00;99508.25;5029102;28;20045;-86
2022/11/23 03:41:19;;;;;;;14.23;3.83;;;;;;;7.61;100.00;99508.03;5028758;28;20492;-88
2022/11/23 03:43:44;;;;;;;12.97;3.23;;;;;;;7.60;100.00;99509.91;5027122;28;20047;-86
2022/11/23 03:46:10;;;;;;;12.80;3.67;;;;;;;7.54;100.00;99493.81;5029086;28;20053;-88
2022/11/23 03:48:35;;;;;;;16.03;3.87;;;;;;;7.59;100.00;99520.91;5027492;28;20045;-89
2022/11/23 03:51:00;;;;;;;16.27;3.87;;;;;;;7.62;100.00;99511.56;5054958;22;20082;-88
2022/11/23 03:53:26;;;;;;;13.77;4.00;;;;;;;7.66;100.00;99513.56;4998745;28;20140;-88
2022/11/23 03:55:54;;;;;;;16.83;3.90;;;;;;;7.71;100.00;99526.34;5009290;28;20517;-86
2022/11/23 03:58:19;;;;;;;19.17;4.37;;;;;;;7.64;100.00;99525.63;5015866;28;20033;-88
2022/11/23 04:00:45;;;;;;;12.67;4.00;;;;;;;7.63;100.00;99537.44;5015915;28;20072;-88
2022/11/23 04:03:10;;;;;;;18.27;4.37;;;;;;;7.67;100.00;99535.94;5014593;28;20485;-87
2022/11/23 04:05:35;;;;;;;17.03;5.43;;;;;;;7.62;100.00;99522.34;5008897;28;20132;-87
2022/11/23 04:08:01;;;;;;;19.10;5.67;;;;;;;7.54;100.00;99526.97;5008822;28;20076;-88
2022/11/23 04:10:26;;;;;;;16.53;4.77;;;;;;;7.56;100.00;99511.41;5016152;28;20045;-88
2022/11/23 04:12:52;;;;;;;16.73;4.90;;;;;;;7.56;100.00;99540.22;5016294;28;20100;-87
2022/11/23 04:15:18;;;;;;;18.90;6.40;;;;;;;7.56;100.00;99532.97;5016335;28;20374;-86
2022/11/23 04:17:44;;;;;;;17.00;5.03;;;;;;;7.58;100.00;99538.13;5016020;28;20042;-85
2022/11/23 04:20:09;;;;;;;14.33;4.87;;;;;;;7.59;100.00;99539.78;5014744;28;20359;-86
2022/11/23 04:22:35;;;;;;;16.87;5.07;;;;;;;7.64;100.00;99536.41;5016308;28;20475;-87
2022/11/23 04:25:00;;;;;;;17.97;5.33;;;;;;;7.64;100.00;99536.41;5016155;28;20037;-85
2022/11/23 04:27:25;;;;;;;18.57;5.67;;;;;;;7.59;100.00;99529.81;5016018;28;20091;-85
2022/11/23 04:29:51;;;;;;;15.27;5.10;;;;;;;7.59;100.00;99529.81;5016019;28;20111;-84
2022/11/23 04:32:16;;;;;;;18.03;5.57;;;;;;;7.59;100.00;99532.50;5014744;28;20048;-86
2022/11/23 04:34:41;;;;;;;14.53;4.13;;;;;;;7.65;100.00;99527.28;5014614;28;20115;-86
2022/11/23 04:37:07;;;;;;;15.03;4.17;;;;;;;7.70;100.00;99536.31;5016287;28;20152;-86
2022/11/23 04:39:32;;;;;;;13.10;4.50;;;;;;;7.63;100.00;99532.91;5015501;28;20179;-86
2022/11/23 04:41:57;;;;;;;17.43;4.70;;;;;;;7.66;100.00;99518.97;5015993;28;20766;-87
2022/11/23 04:44:23;;;;;;;14.47;4.00;;;;;;;7.70;100.00;99527.44;5013808;28;20068;-90
2022/11/23 04:46:49;;;;;;;18.93;5.40;;;;;;;7.68;100.00;99529.50;5016104;28;20037;-86
2022/11/23 04:49:15;;;;;;;14.50;4.60;;;;;;;7.65;100.00;99527.28;5015374;28;20038;-88
2022/11/23 04:51:40;;;;;;;15.17;4.33;;;;;;;7.66;100.00;99528.94;5015532;28;20050;-87
2022/11/23 04:54:05;;;;;;;16.50;4.53;;;;;;;7.67;100.00;99530.56;5013755;28;20075;-87
2022/11/23 04:56:31;;;;;;;17.10;5.63;;;;;;;7.72;100.00;99530.72;5015826;28;20048;-86
2022/11/23 04:58:56;;;;;;;15.37;4.07;;;;;;;7.53;100.00;99501.03;5015442;28;20071;-86
2022/11/23 05:01:21;;;;;;;14.17;3.80;;;;;;;7.69;100.00;99525.78;5015592;28;20444;-89
2022/11/23 05:03:47;;;;;;;15.73;3.77;;;;;;;7.77;100.00;99520.06;5008464;28;20074;-88
2022/11/23 05:06:12;;;;;;;17.40;4.27;;;;;;;7.73;100.00;99517.00;5015457;28;20053;-88
2022/11/23 05:08:37;;;;;;;16.57;3.83;;;;;;;7.74;100.00;99520.53;5014919;28;20053;-87
2022/11/23 05:11:03;;;;;;;16.77;3.93;;;;;;;7.74;100.00;99525.94;5013771;28;20055;-87
2022/11/23 05:13:28;;;;;;;15.80;4.27;;;;;;;7.75;100.00;99522.16;5015086;28;20037;-86
2022/11/23 05:15:53;;;;;;;16.00;4.20;;;;;;;7.68;100.00;99522.22;5014882;28;20045;-87
2022/11/23 05:18:19;;;;;;;16.73;4.83;;;;;;;7.72;100.00;99518.03;5015813;28;20964;-87
2022/11/23 05:20:45;;;;;;;17.27;4.83;;;;;;;7.72;100.00;99518.03;5014904;28;20041;-86
2022/11/23 05:23:11;;;;;;;14.67;4.47;;;;;;;7.63;100.00;99503.25;5015702;28;20033;-87
2022/11/23 05:25:36;;;;;;;15.30;4.10;;;;;;;7.73;100.00;99524.28;5015581;28;20041;-87
2022/11/23 05:28:02;;;;;;;18.70;4.60;;;;;;;7.66;100.00;99513.56;5015134;28;20041;-88
2022/11/23 05:30:27;;;;;;;17.87;4.33;;;;;;;7.63;100.00;99521.28;5013541;28;20462;-88
2022/11/23 05:32:53;;;;;;;15.87;4.07;;;;;;;7.70;100.00;99530.13;5015794;28;20033;-88
2022/11/23 05:35:18;;;;;;;16.80;3.80;;;;;;;7.58;100.00;99532.75;5015401;28;20045;-87
2022/11/23 05:37:44;;;;;;;19.27;3.93;;;;;;;7.58;100.00;99528.16;5015785;28;20049;-86
2022/11/23 05:40:10;;;;;;;16.77;3.97;;;;;;;7.62;100.00;99535.81;5015063;28;20850;-85
2022/11/23 05:42:35;;;;;;;19.77;3.77;;;;;;;7.57;100.00;99545.38;5015200;28;20041;-87
2022/11/23 05:45:01;;;;;;;18.03;4.07;;;;;;;7.59;100.00;99535.19;5016628;28;20033;-86
2022/11/23 05:47:26;;;;;;;18.57;4.30;;;;;;;7.54;100.00;99532.34;5011143;28;20145;-87
2022/11/23 05:49:51;;;;;;;16.80;4.30;;;;;;;7.56;100.00;99529.44;5019435;28;20033;-88
2022/11/23 05:52:17;;;;;;;16.60;4.33;;;;;;;7.49;100.00;99536.78;4992673;22;20063;-87
2022/11/23 05:54:43;;;;;;;16.63;4.37;;;;;;;7.43;100.00;99514.25;5023657;28;20486;-87
2022/11/23 05:57:09;;;;;;;17.33;4.10;;;;;;;7.42;100.00;99524.22;5024845;28;20405;-88
2022/11/23 05:59:34;;;;;;;15.13;3.93;;;;;;;7.36;100.00;99521.56;5005891;28;20030;-86
2022/11/23 06:02:00;;;;;;;19.33;4.53;;;;;;;7.41;100.00;99529.78;5024210;28;20560;-85
2022/11/23 06:04:25;;;;;;;15.13;3.87;;;;;;;7.45;100.00;99528.28;5024369;28;20424;-88
2022/11/23 06:06:53;;;;;;;16.47;4.10;;;;;;;7.47;100.00;99541.56;5024040;28;20072;-85
2022/11/23 06:09:18;;;;;;;20.10;4.33;;;;;;;7.49;100.00;99539.47;5024201;28;20037;-87
2022/11/23 06:11:44;;;;;;;18.70;4.27;;;;;;;7.43;100.00;99541.19;5024114;28;20045;-85
2022/11/23 06:14:09;;;;;;;16.47;3.73;;;;;;;7.38;100.00;99538.34;5022925;28;20037;-86
2022/11/23 06:16:35;;;;;;;19.20;4.43;;;;;;;7.36;100.00;99540.44;5006343;28;20052;-87
2022/11/23 06:19:00;;;;;;;16.90;4.10;;;;;;;7.34;100.00;99526.34;4987398;28;20389;-87
2022/11/23 06:21:25;;;;;;;16.70;4.30;;;;;;;7.36;100.00;99540.44;5023924;28;20044;-87
2022/11/23 06:23:51;;;;;;;15.57;3.87;;;;;;;7.36;100.00;99541.25;5023253;28;20033;-86
2022/11/23 06:26:16;;;;;;;20.07;4.93;;;;;;;7.32;100.00;99536.53;5004936;28;20047;-88
2022/11/23 06:28:41;;;;;;;19.60;4.53;;;;;;;7.41;100.00;99543.28;5022992;28;20103;-89
2022/11/23 06:31:07;;;;;;;19.63;4.77;;;;;;;7.39;100.00;99542.69;5023939;28;20405;-87
2022/11/23 06:33:33;;;;;;;17.70;4.43;;;;;;;7.36;100.00;99546.63;5023405;28;20077;-86
2022/11/23 06:36:00;;;;;;;17.40;4.40;;;;;;;7.38;100.00;99543.72;5023309;28;20048;-86
2022/11/23 06:38:26;;;;;;;17.07;4.20;;;;;;;7.37;100.00;99555.53;5022982;28;20560;-88
2022/11/23 06:40:52;;;;;;;17.27;4.10;;;;;;;7.34;100.00;99547.91;5023145;28;20584;-88
2022/11/23 06:43:17;;;;;;;17.57;4.57;;;;;;;7.36;100.00;99554.72;5023298;28;20041;-87
2022/11/23 06:45:43;;;;;;;19.37;4.67;;;;;;;7.30;100.00;99547.50;5023656;28;20486;-86
2022/11/23 06:48:09;;;;;;;20.50;4.30;;;;;;;7.24;100.00;99543.84;5023542;28;20038;-87
2022/11/23 06:50:34;;;;;;;15.10;4.33;;;;;;;7.28;100.00;99554.19;5023129;28;20057;-87
2022/11/23 06:53:00;;;;;;;19.53;4.27;;;;;;;7.21;100.00;99552.38;5004205;28;20081;-89
2022/11/23 06:55:26;;;;;;;20.60;4.43;;;;;;;7.23;100.00;99552.97;4994403;28;20032;-89
2022/11/23 06:57:51;;;;;;;19.47;4.67;;;;;;;7.18;100.00;99547.44;5022656;28;20538;-88
2022/11/23 07:00:18;;;;;;;18.97;4.00;;;;;;;7.26;100.00;99560.63;5023393;28;20172;-87
2022/11/23 07:02:51;;;;;;;20.80;5.00;;;;;;;7.20;100.00;99572.28;5023767;28;20108;-86
2022/11/23 07:05:16;;;;;;;19.23;4.77;;;;;;;7.21;100.00;99570.44;5022452;28;20088;-86
2022/11/23 07:07:41;;;;;;;19.30;4.50;;;;;;;7.20;100.00;99574.16;5022869;28;20877;-87
2022/11/23 07:10:07;;;;;;;22.53;4.77;;;;;;;7.21;100.00;99560.47;5004668;28;20649;-86
2022/11/23 07:12:33;;;;;;;19.23;4.30;;;;;;;7.23;100.00;99581.78;5021912;28;20043;-90
2022/11/23 07:14:58;;;;;;;17.47;4.10;;;;;;;7.29;100.00;99583.63;5023068;28;20484;-89
2022/11/23 07:17:23;;;;;;;21.33;4.23;;;;;;;7.31;100.00;99586.09;5022392;28;20729;-86
2022/11/23 07:19:48;;;;;;;20.63;4.83;;;;;;;7.36;100.00;99578.16;5011489;28;20576;-88
2022/11/23 07:22:14;;;;;;;18.50;4.23;;;;;;;7.30;100.00;99597.91;5023953;28;20036;-88
2022/11/23 07:24:39;;;;;;;16.77;3.73;;;;;;;7.32;100.00;99598.50;5004054;28;20036;-87
2022/11/23 07:27:05;;;;;;;16.70;3.50;;;;;;;7.38;100.00;99593.03;5022357;28;20462;-87
2022/11/23 07:29:30;;;;;;;18.00;4.20;;;;;;;7.30;100.00;99605.97;5022021;28;20433;-87
2022/11/23 07:31:55;;;;;;;15.33;3.70;;;;;;;7.33;100.00;99602.84;4987812;28;20076;-88
2022/11/23 07:34:20;;;;;;;20.47;3.73;;;;;;;7.41;100.00;99605.25;5022083;28;20484;-87
2022/11/23 07:36:46;;;;;;;15.87;4.00;;;;;;;7.35;100.00;99614.22;5005229;28;20050;-89
2022/11/23 07:39:11;;;;;;;18.07;4.23;;;;;;;7.25;100.00;99580.53;5021544;28;20041;-89
2022/11/23 07:41:37;;;;;;;16.53;4.00;;;;;;;7.36;100.00;99610.50;4994084;28;20037;-86
2022/11/23 07:44:02;;;;;;;17.60;3.90;;;;;;;7.37;100.00;99612.13;5022154;28;20049;-87
2022/11/23 07:46:27;;;;;;;17.97;3.80;;;;;;;7.31;100.00;99608.44;5030797;28;20033;-86
2022/11/23 07:48:58;;;;;;;18.63;3.90;;;;;;;7.39;100.00;99620.84;5022826;28;20041;-87
2022/11/23 07:51:24;;;;;;;18.10;3.70;;;;;;;7.39;100.00;99623.53;5021245;28;20048;-86
2022/11/23 07:53:49;;;;;;;17.97;3.97;;;;;;;7.40;100.00;99623.28;5024446;28;20045;-88
2022/11/23 07:56:14;;;;;;;17.90;3.77;;;;;;;7.43;100.00;99624.72;5021508;28;20757;-89
2022/11/23 07:58:40;;;;;;;14.87;3.87;;;;;;;7.42;100.00;99626.63;5022994;28;20508;-91
2022/11/23 08:01:05;;;;;;;18.13;3.93;;;;;;;7.43;100.00;99633.63;5024322;28;20513;-86
2022/11/23 08:03:30;;;;;;;18.50;4.40;;;;;;;7.42;100.00;99631.16;5004660;28;21493;-87
2022/11/23 08:05:56;;;;;;;15.70;3.70;;;;;;;7.43;100.00;99627.44;4976168;28;20215;-88
2022/11/23 08:08:21;;;;;;;15.70;3.50;;;;;;;7.50;100.00;99638.16;5021459;28;20170;-85
2022/11/23 08:10:47;;;;;;;16.17;3.67;;;;;;;7.50;100.00;99625.50;5020517;28;20520;-85
2022/11/23 08:13:12;;;;;;;19.13;3.87;;;;;;;7.55;100.00;99636.44;4987510;28;20643;-86
2022/11/23 08:15:37;;;;;;;15.30;3.90;;;;;;;7.60;100.00;99628.50;5002891;28;20037;-87
2022/11/23 08:18:03;;;;;;;15.20;3.73;;;;;;;7.80;99.81;99640.97;5020944;28;20036;-86
2022/11/23 08:20:30;;;;;;;14.53;3.43;;;;;;;7.64;98.76;99625.38;5020648;28;20377;-86
2022/11/23 08:22:55;;;;;;;15.53;3.87;;;;;;;7.77;98.80;99634.13;5003542;28;20210;-88
2022/11/23 08:25:22;;;;;;;15.83;3.83;;;;;;;7.86;98.21;99647.31;5003201;28;20478;-87
2022/11/23 08:27:53;;;;;;;14.20;3.53;;;;;;;7.96;98.06;99638.75;4992678;28;20033;-87
2022/11/23 08:30:19;;;;;;;16.67;3.93;;;;;;;7.84;98.17;99641.34;5021848;28;20036;-86
2022/11/23 08:32:44;;;;;;;16.43;3.60;;;;;;;7.97;96.91;99648.47;5021843;28;20036;-87
2022/11/23 08:35:09;;;;;;;13.30;3.20;;;;;;;7.93;97.09;99621.94;5020567;28;20148;-86
2022/11/23 08:37:35;;;;;;;14.43;3.50;;;;;;;8.04;96.60;99643.84;5020497;28;20389;-87
2022/11/23 08:40:00;;;;;;;17.73;3.30;;;;;;;8.02;96.31;99645.91;5020423;28;20113;-84
2022/11/23 08:42:25;;;;;;;14.53;3.30;;;;;;;8.08;96.95;99645.84;5023658;28;20104;-87
2022/11/23 08:44:51;;;;;;;18.90;4.20;;;;;;;8.18;96.47;99652.59;5021100;28;20041;-87
2022/11/23 08:47:18;;;;;;;15.00;3.57;;;;;;;8.05;95.01;99651.69;5021228;28;20037;-89
2022/11/23 08:49:43;;;;;;;14.10;3.60;;;;;;;8.09;95.79;99652.06;5020642;28;20040;-88
2022/11/23 08:52:09;;;;;;;14.47;3.73;;;;;;;8.18;94.56;99648.00;5022147;28;20049;-88
2022/11/23 08:54:34;;;;;;;15.13;3.30;;;;;;;8.24;93.99;99646.28;5020052;28;20057;-87
2022/11/23 08:56:59;;;;;;;14.33;3.90;;;;;;;8.17;94.91;99653.63;5022624;28;20033;-87
2022/11/23 08:59:25;;;;;;;15.20;3.43;;;;;;;8.25;93.12;99634.44;5022341;28;20490;-85
2022/11/23 09:01:50;;;;;;;14.60;3.87;;;;;;;8.26;93.09;99631.53;5021582;28;20040;-86
2022/11/23 09:04:16;;;;;;;15.87;3.93;;;;;;;8.48;93.71;99641.06;5004218;28;20057;-86
2022/11/23 09:06:41;;;;;;;15.90;3.40;;;;;;;8.59;92.89;99646.53;5014663;28;20041;-83
2022/11/23 09:09:06;;;;;;;14.03;3.60;;;;;;;8.77;92.57;99642.09;5013791;28;20044;-87
2022/11/23 09:11:32;;;;;;;15.03;3.53;;;;;;;8.87;91.15;99646.97;5012348;28;20049;-84
2022/11/23 09:13:57;;;;;;;14.70;3.60;;;;;;;8.69;90.40;99645.13;5013437;28;20095;-87
2022/11/23 09:16:23;;;;;;;15.70;3.83;;;;;;;8.81;90.10;99637.88;4995302;28;20458;-86
2022/11/23 09:18:49;;;;;;;15.07;3.77;;;;;;;8.84;89.16;99642.84;5004241;28;20041;-88
2022/11/23 09:21:14;;;;;;;15.80;3.77;;;;;;;8.65;89.85;99633.97;4987866;28;20456;-87
2022/11/23 09:23:40;;;;;;;18.47;4.10;;;;;;;8.90;89.99;99641.09;5013652;28;20037;-85
2022/11/23 09:26:05;;;;;;;15.30;3.90;;;;;;;8.96;88.34;99618.56;4975895;28;20136;-87
2022/11/23 09:28:31;;;;;;;17.77;3.60;;;;;;;9.09;87.76;99622.94;4987344;28;20120;-87
2022/11/23 09:30:57;;;;;;;15.77;3.83;;;;;;;9.09;88.06;99615.66;5012543;28;20033;-87
2022/11/23 09:33:24;;;;;;;14.53;3.40;;;;;;;9.15;86.68;99632.81;5012073;28;20045;-90
2022/11/23 09:36:00;;;;;;;13.73;3.40;;;;;;;9.12;88.50;99617.91;5011492;28;20484;-87
2022/11/23 09:38:26;;;;;;;12.83;3.20;;;;;;;9.03;87.67;99613.03;5013988;28;20555;-88
2022/11/23 09:40:58;;;;;;;18.60;3.30;;;;;;;9.21;86.92;99591.34;4994369;28;20127;-89
2022/11/23 09:43:32;;;;;;;15.67;3.40;;;;;;;9.14;86.88;99609.56;4995962;28;20053;-86
2022/11/23 09:46:09;;;;;;;15.23;3.20;;;;;;;9.17;85.52;99600.97;5004271;28;20402;-88
2022/11/23 09:48:54;;;;;;;16.53;3.60;;;;;;;9.06;84.67;99591.00;4996641;28;20681;-89
2022/11/23 09:51:22;;;;;;;13.73;3.47;;;;;;;9.18;84.50;99608.03;5012576;28;20258;-89
2022/11/23 09:54:09;;;;;;;14.90;3.30;;;;;;;9.33;85.28;99607.59;5014163;28;20100;-87
2022/11/23 09:56:37;;;;;;;14.63;3.20;;;;;;;9.35;83.90;99616.28;5015076;28;20021;-88
2022/11/23 09:59:16;;;;;;;14.27;3.67;;;;;;;9.02;85.28;99611.41;5012538;28;20041;-88
2022/11/23 10:01:41;;;;;;;13.53;3.47;;;;;;;9.23;84.11;99589.25;4995698;28;20041;-89
2022/11/23 10:04:16;;;;;;;13.77;3.27;;;;;;;9.29;83.25;99591.00;5013503;28;20041;-87
2022/11/23 10:06:42;;;;;;;12.97;3.23;;;;;;;9.21;82.75;99577.84;4994886;28;20040;-88
2022/11/23 10:09:17;;;;;;;11.17;3.23;;;;;;;9.07;82.99;99576.41;5013154;28;20041;-89
2022/11/23 10:12:04;;;;;;;12.45;3.00;;;;;;;9.12;85.05;99577.38;5016081;28;20045;-86
2022/11/23 10:14:53;;;;;;;12.40;3.00;;;;;;;9.33;84.22;99579.72;5014923;28;20030;-87
2022/11/23 10:17:41;;;;;;;15.57;3.50;;;;;;;9.62;84.50;99572.53;5016259;28;20140;-85
2022/11/23 10:20:44;;;;;;;10.77;2.90;;;;;;;9.84;82.64;99575.44;5015298;28;20037;-87
2022/11/23 10:23:19;;;;;;;11.47;3.30;;;;;;;9.87;82.11;99564.13;5015762;28;20425;-88
2022/11/23 10:25:48;;;;;;;9.67;2.90;;;;;;;9.89;80.69;99555.81;5014735;28;20122;-86
2022/11/23 10:28:17;;;;;;;7.77;2.63;;;;;;;9.84;80.14;99561.91;5018665;28;20171;-89
2022/11/23 10:30:51;;;;;;;12.30;2.97;;;;;;;9.97;80.64;99564.34;5020606;28;20159;-86
2022/11/23 10:33:39;;;;;;;11.73;2.90;;;;;;;10.17;80.32;99559.59;5025129;28;20072;-88
2022/11/23 10:36:04;;;;;;;11.50;2.87;;;;;;;9.97;79.10;99553.53;5024412;28;20382;-89
2022/11/23 10:41:06;;;;;;;11.52;2.70;;;;;;;10.08;78.92;99537.53;5024335;22;20052;-88
2022/11/23 10:43:54;;;;;;;10.00;2.70;;;;;;;10.31;80.17;99548.25;5017577;28;20480;-86
2022/11/23 10:46:36;;;;;;;13.77;3.07;;;;;;;10.01;78.25;99536.81;5016711;28;20037;-88
2022/11/23 10:49:32;;;;;;;10.37;2.60;;;;;;;10.25;79.24;99551.94;5023988;22;21432;-85
2022/11/23 10:52:24;;;;;;;11.13;2.83;;;;;;;10.15;78.44;99524.66;5008524;28;20513;-89
2022/11/23 10:54:55;;;;;;;10.47;2.80;;;;;;;10.33;77.74;99536.34;5009338;28;20498;-86
2022/11/23 10:57:26;;;;;;;10.37;2.80;;;;;;;10.30;77.82;99540.38;5009797;28;20026;-88
2022/11/23 11:00:12;;;;;;;13.23;2.90;;;;;;;10.28;79.06;99532.50;5009810;28;20037;-87
2022/11/23 11:02:42;;;;;;;10.60;2.60;;;;;;;10.47;78.39;99535.00;5006820;28;20121;-88
2022/11/23 11:05:23;;;;;;;10.77;2.77;;;;;;;10.63;77.74;99550.50;5010872;28;20033;-89
2022/11/23 11:07:48;;;;;;;9.13;2.40;;;;;;;10.22;77.21;99533.44;5009763;28;20045;-86
2022/11/23 11:10:45;;;;;;;10.60;2.50;;;;;;;10.35;78.97;99534.25;5008008;28;20630;-87
2022/11/23 11:13:31;;;;;;;8.73;2.40;;;;;;;10.49;79.24;99522.06;5010220;28;20064;-86
2022/11/23 11:16:03;;;;;;;10.60;2.50;;;;;;;10.28;78.66;99500.00;5008965;28;20038;-87
2022/11/23 11:18:36;;;;;;;13.40;2.87;;;;;;;10.07;77.70;99492.56;5010454;28;20542;-89
2022/11/23 11:21:17;;;;;;;7.68;2.55;;;;;;;10.15;78.46;99532.78;5009801;28;20478;-88
2022/11/23 11:23:51;;;;;;;8.07;2.40;;;;;;;10.11;76.79;99512.66;5009831;28;20532;-87
2022/11/23 11:26:22;;;;;;;11.43;2.60;;;;;;;10.17;78.37;99513.59;5011061;28;20084;-86
2022/11/23 11:28:50;;;;;;;10.27;2.67;;;;;;;9.95;78.78;99516.94;5009578;28;20030;-87
2022/11/23 11:31:45;;;;;;;10.33;2.50;;;;;;;9.96;79.58;99519.41;5010364;28;20036;-88
2022/11/23 11:34:29;;;;;;;11.97;2.50;;;;;;;9.95;80.45;99525.91;5009564;28;20083;-86
2022/11/23 11:37:21;;;;;;;10.40;2.33;;;;;;;9.88;79.66;99510.88;5005998;28;20079;-91